Pagina principale
METAR-TAF:

METAR-TAF

Aeroporti :

Aeroporto di Lamezia Terme

Lamezia Terme, Italia

latitudine: 38-54N, longitudine: 016-15E, altezza: 15 m

Osservazione

Il bollettino è stato emesso 40 minuti fa, alle 19:50 UTC
Vento 2 kt da direzioni variabili
Temperature 22°C
Umidità 83%
Pressione 1018 hPa
Visibilità 10 km o più
Poco nuvoloso ad un'altezza di 2500 ft

METAR: LICA 161950Z VRB02KT 9999 FEW025 22/19 Q1018

Ora: 22:30 (20:30 UTC)

Previsione

Il bollettino è stato emesso 3 ore e 30 minuti fa, alle 17:00 UTC
Previsione valida dal 16 alle 18 UTC al 17 alle 18 UTC
Vento 12 kt da ovest
Visibilità 10 km o più
nessuna nube inferiore a 1500 m e nessun cumulonembo
Evoluzione graduale
dal 16 alle 18 UTC al 16 alle 20 UTC
Vento 5 kt da direzioni variabili
Evoluzione graduale
dal 17 alle 09 UTC al 17 alle 11 UTC
Vento 12 kt da ovest

TAF: LICA 161700Z 1618/1718 27012KT CAVOK BECMG 1618/1620 VRB05KT BECMG 1709/1711 27012KT

Osservazioni e previsioni meteorologiche di più di 4000 aeroporti (messaggi METAR e TAF).

Le stazioni disponibili sono rappresentate dai dischi gialli e rossi sulla carta.

Puntare il mouse per vedere il nome della stazione.

Clicca sopra per visualizzare le osservazioni e previsioni meteorologiche.

Per cambiare la mappa : fare clic sui pulsanti verdi con una croce nera per ingrandire, il pulsante verde con un trattino per diminuire, o sulla freccia verde per le mappe adiacenti.


METAR-TAF: